Time;durP1;ratioP1;P1;durP2;ratioP2;P2;SDS_P1;SDS_P2;PMS_P1;PMS_P2;Temp;Humidity;BMP_temperature;BMP_pressure;BME280_temperature;BME280_humidity;BME280_pressure;Samples;Min_cycle;Max_cycle;Signal;HPM_P1;HPM_P2
2023/05/09 00:02:16;;;;;;;38.30;26.30;;;14.30;99.90;;;;;;4916566;28;37591;-79
2023/05/09 00:04:42;;;;;;;39.30;27.48;;;14.30;99.90;;;;;;4906010;29;37276;-79
2023/05/09 00:07:09;;;;;;;32.88;25.50;;;14.40;99.90;;;;;;4892386;29;38240;-79
2023/05/09 00:09:35;;;;;;;33.70;26.38;;;14.40;99.90;;;;;;4892596;29;37265;-79
2023/05/09 00:12:01;;;;;;;32.90;25.52;;;14.40;99.90;;;;;;4897533;29;37518;-79
2023/05/09 00:14:27;;;;;;;36.70;25.15;;;14.30;99.90;;;;;;4900231;29;49242;-79
2023/05/09 00:16:54;;;;;;;35.05;25.75;;;14.30;99.90;;;;;;4902344;29;36905;-79
2023/05/09 00:19:20;;;;;;;35.88;24.50;;;14.30;99.90;;;;;;4898029;29;38691;-79
2023/05/09 00:21:46;;;;;;;33.60;24.45;;;14.40;99.90;;;;;;4894067;29;39534;-79
2023/05/09 00:24:12;;;;;;;35.13;23.92;;;14.40;99.90;;;;;;4896389;29;38543;-80
2023/05/09 00:26:38;;;;;;;29.10;22.83;;;14.30;99.90;;;;;;4909503;29;37493;-80
2023/05/09 00:29:06;;;;;;;33.13;23.55;;;14.30;99.90;;;;;;4898284;29;38449;-79
2023/05/09 00:31:32;;;;;;;28.25;22.25;;;14.40;99.90;;;;;;4896937;29;39527;-80
2023/05/09 00:33:59;;;;;;;33.67;22.83;;;14.40;99.90;;;;;;4893471;29;37479;-80
2023/05/09 00:36:25;;;;;;;32.65;22.70;;;14.40;99.90;;;;;;4889656;29;37406;-79
2023/05/09 00:38:51;;;;;;;30.95;23.20;;;14.40;99.90;;;;;;4889468;29;37444;-80
2023/05/09 00:41:17;;;;;;;31.85;21.20;;;14.40;99.90;;;;;;4885783;29;37484;-79
2023/05/09 00:43:43;;;;;;;32.08;20.75;;;14.40;99.90;;;;;;4891773;29;38503;-79
2023/05/09 00:46:10;;;;;;;30.38;21.73;;;14.40;99.90;;;;;;4891997;29;37408;-79
2023/05/09 00:48:36;;;;;;;28.83;19.50;;;14.40;99.90;;;;;;4898499;29;37447;-80
2023/05/09 00:51:03;;;;;;;29.23;21.35;;;14.40;99.90;;;;;;4907498;29;39671;-79
2023/05/09 00:53:30;;;;;;;32.15;21.60;;;14.40;99.90;;;;;;4909914;29;37870;-80
2023/05/09 00:55:57;;;;;;;30.77;21.52;;;14.40;99.90;;;;;;4897607;29;36794;-80
2023/05/09 00:58:23;;;;;;;30.33;20.58;;;14.40;99.90;;;;;;4901850;28;40610;-80
2023/05/09 01:03:25;;;;;;;28.65;21.00;;;14.40;99.90;;;;;;5022804;23;20124;-80
2023/05/09 01:05:55;;;;;;;30.77;21.52;;;14.40;99.90;;;;;;4877799;29;38905;-79
2023/05/09 01:08:27;;;;;;;29.92;21.27;;;14.40;99.90;;;;;;4863279;29;37871;-80
2023/05/09 01:11:08;;;;;;;29.38;21.60;;;14.40;99.90;;;;;;4869206;29;37600;-79
2023/05/09 01:13:34;;;;;;;32.35;22.65;;;14.40;99.90;;;;;;4880784;29;47238;-80
2023/05/09 01:16:16;;;;;;;30.33;21.77;;;14.40;99.90;;;;;;4871748;29;38866;-80
2023/05/09 01:18:48;;;;;;;34.03;22.25;;;14.30;99.90;;;;;;4864599;29;47011;-81
2023/05/09 01:21:26;;;;;;;29.52;20.88;;;14.30;99.90;;;;;;4854294;29;39091;-81
2023/05/09 01:24:20;;;;;;;28.92;21.25;;;14.20;99.90;;;;;;4879436;29;37571;-81
2023/05/09 01:27:16;;;;;;;;;;;;;;;;;;;;;
2023/05/09 01:29:46;;;;;;;30.92;21.80;;;14.30;99.90;;;;;;4875279;29;49377;-79
2023/05/09 01:32:18;;;;;;;33.15;23.15;;;14.30;99.90;;;;;;4874013;29;39713;-79
2023/05/09 01:34:50;;;;;;;28.85;21.33;;;14.30;99.90;;;;;;4867346;29;39753;-80
2023/05/09 01:37:18;;;;;;;35.13;22.90;;;14.30;99.90;;;;;;4884951;29;37967;-82
2023/05/09 01:39:56;;;;;;;28.98;21.55;;;14.30;99.90;;;;;;4858923;29;36354;-80
2023/05/09 01:42:27;;;;;;;36.67;22.10;;;14.30;99.90;;;;;;4873141;29;39261;-81
2023/05/09 01:44:58;;;;;;;30.65;20.13;;;14.30;99.90;;;;;;4874240;29;38479;-82
2023/05/09 01:47:26;;;;;;;30.95;20.40;;;14.30;99.90;;;;;;4873698;28;38461;-81
2023/05/09 01:50:09;;;;;;;28.15;19.60;;;14.30;99.90;;;;;;4859714;29;38939;-82
2023/05/09 01:52:41;;;;;;;27.70;19.20;;;14.30;99.90;;;;;;4873170;29;48519;-81
2023/05/09 01:55:08;;;;;;;27.55;20.23;;;14.30;99.90;;;;;;4870522;29;39403;-79
2023/05/09 01:57:39;;;;;;;27.05;19.83;;;14.20;99.90;;;;;;4868946;29;36977;-81
2023/05/09 02:00:09;;;;;;;28.10;19.05;;;14.20;99.90;;;;;;4863188;29;36228;-81
2023/05/09 02:02:36;;;;;;;27.27;18.38;;;14.30;99.90;;;;;;4864494;29;41310;-82
2023/05/09 02:05:02;;;;;;;26.50;18.63;;;14.20;99.90;;;;;;4872722;29;37386;-79
2023/05/09 02:07:29;;;;;;;22.90;17.65;;;14.20;99.90;;;;;;4868566;29;37434;-80
2023/05/09 02:09:59;;;;;;;24.60;18.23;;;14.20;99.90;;;;;;4865872;29;36693;-81
2023/05/09 02:12:25;;;;;;;25.25;18.35;;;14.20;99.90;;;;;;4865228;29;39577;-80
2023/05/09 02:14:51;;;;;;;25.80;18.52;;;14.20;99.90;;;;;;4872551;29;37607;-80
2023/05/09 02:17:18;;;;;;;25.50;18.52;;;14.20;99.90;;;;;;4868411;29;38285;-80
2023/05/09 02:19:44;;;;;;;24.85;19.17;;;14.20;99.90;;;;;;4876482;29;37232;-79
2023/05/09 02:22:17;;;;;;;26.35;17.25;;;14.20;99.90;;;;;;4857399;29;37966;-79
2023/05/09 02:24:44;;;;;;;23.15;18.45;;;14.20;99.90;;;;;;4882422;29;37490;-80
2023/05/09 02:27:11;;;;;;;26.30;17.10;;;14.20;99.90;;;;;;4891251;29;39391;-80
2023/05/09 02:29:49;;;;;;;23.80;17.30;;;14.20;99.90;;;;;;4867773;29;37323;-82
2023/05/09 02:32:21;;;;;;;23.77;17.90;;;14.20;99.90;;;;;;4870292;29;38158;-82
2023/05/09 02:34:49;;;;;;;;;;;14.20;99.90;;;;;;4883836;29;40110;-80
2023/05/09 02:37:16;;;;;;;28.88;17.63;;;14.10;99.90;;;;;;4882083;29;37453;-80
2023/05/09 02:39:43;;;;;;;24.98;18.08;;;14.10;99.90;;;;;;4873885;29;36566;-81
2023/05/09 02:42:10;;;;;;;25.73;17.50;;;14.10;99.90;;;;;;4869774;29;38614;-80
2023/05/09 02:44:37;;;;;;;26.13;17.33;;;14.10;99.90;;;;;;4869675;29;38030;-80
2023/05/09 02:47:05;;;;;;;27.70;18.67;;;14.10;99.90;;;;;;4868454;29;37889;-81
2023/05/09 02:49:32;;;;;;;26.27;17.77;;;14.10;99.90;;;;;;4870329;29;38397;-82
2023/05/09 02:51:59;;;;;;;28.45;18.05;;;14.00;99.90;;;;;;4874141;29;38524;-82
2023/05/09 02:54:25;;;;;;;27.83;17.17;;;14.00;99.90;;;;;;4867294;29;37746;-81
2023/05/09 02:56:51;;;;;;;29.80;18.00;;;14.00;99.90;;;;;;4869995;29;37127;-83
2023/05/09 02:59:19;;;;;;;27.13;17.52;;;14.00;99.90;;;;;;4869320;29;37864;-81
2023/05/09 03:01:45;;;;;;;24.30;18.42;;;14.00;99.90;;;;;;4870425;29;38728;-81
2023/05/09 03:04:11;;;;;;;28.30;18.83;;;14.00;99.90;;;;;;4870726;29;39491;-81
2023/05/09 03:06:37;;;;;;;30.10;20.40;;;14.00;99.90;;;;;;4884267;29;36893;-81
2023/05/09 03:09:03;;;;;;;29.48;19.83;;;14.00;99.90;;;;;;4868466;29;37522;-81
2023/05/09 03:11:29;;;;;;;33.22;19.75;;;14.00;99.90;;;;;;4866674;29;40953;-81
2023/05/09 03:13:56;;;;;;;27.33;20.13;;;14.00;99.90;;;;;;4869748;29;36238;-81
2023/05/09 03:16:22;;;;;;;26.50;18.73;;;14.00;99.90;;;;;;4868403;29;37039;-81
2023/05/09 03:18:48;;;;;;;27.13;20.30;;;14.00;99.90;;;;;;4866379;29;37316;-81
2023/05/09 03:21:14;;;;;;;33.60;21.88;;;14.00;99.90;;;;;;4865733;29;39220;-80
2023/05/09 03:23:40;;;;;;;30.90;20.63;;;14.00;99.90;;;;;;4869673;29;38407;-81
2023/05/09 03:26:06;;;;;;;34.78;22.13;;;14.00;99.90;;;;;;4867324;29;36805;-80
2023/05/09 03:28:33;;;;;;;30.33;20.38;;;14.00;99.90;;;;;;4868448;29;38457;-81
2023/05/09 03:30:59;;;;;;;32.13;21.63;;;14.00;99.90;;;;;;4883905;29;39108;-80
2023/05/09 03:33:25;;;;;;;36.60;22.58;;;14.00;99.90;;;;;;4885244;29;37502;-80
2023/05/09 03:35:51;;;;;;;33.28;20.70;;;14.00;99.90;;;;;;4873117;29;37735;-81
2023/05/09 03:38:17;;;;;;;31.85;22.65;;;14.00;99.90;;;;;;4870429;29;36516;-81
2023/05/09 03:40:43;;;;;;;36.63;23.55;;;14.00;99.90;;;;;;4869264;29;38910;-82
2023/05/09 03:43:09;;;;;;;32.33;21.23;;;14.00;99.90;;;;;;4871486;29;37327;-81
2023/05/09 03:45:37;;;;;;;36.28;22.05;;;14.00;99.90;;;;;;4868808;29;38756;-80
2023/05/09 03:48:07;;;;;;;36.10;22.75;;;14.00;99.90;;;;;;4863764;29;36407;-81
2023/05/09 03:50:33;;;;;;;30.05;21.38;;;14.10;99.90;;;;;;4867805;29;39966;-81
2023/05/09 03:52:59;;;;;;;30.25;22.45;;;14.10;99.90;;;;;;4869275;29;37431;-81
2023/05/09 03:55:25;;;;;;;33.97;21.67;;;14.10;99.90;;;;;;4872149;29;37318;-82
2023/05/09 03:57:51;;;;;;;32.45;22.70;;;14.10;99.90;;;;;;4869481;29;36622;-81
2023/05/09 04:00:18;;;;;;;34.15;21.55;;;14.10;99.90;;;;;;4863037;29;38821;-81
2023/05/09 04:02:44;;;;;;;32.28;21.02;;;14.10;99.90;;;;;;4866049;29;37483;-81
2023/05/09 04:05:10;;;;;;;35.28;22.67;;;14.10;99.90;;;;;;4872585;29;37287;-81
2023/05/09 04:07:36;;;;;;;31.00;21.08;;;14.10;99.90;;;;;;4868031;29;36524;-81
2023/05/09 04:10:03;;;;;;;38.50;23.50;;;14.10;99.90;;;;;;4890862;29;37720;-81
2023/05/09 04:12:29;;;;;;;31.90;21.98;;;14.10;99.90;;;;;;4868628;29;37398;-81
2023/05/09 04:14:55;;;;;;;36.83;21.90;;;14.10;99.90;;;;;;4883331;29;38341;-81
2023/05/09 04:17:21;;;;;;;38.33;21.77;;;14.10;99.90;;;;;;4880300;29;36546;-82
2023/05/09 04:19:47;;;;;;;37.72;22.50;;;14.10;99.90;;;;;;4873136;29;38468;-82
2023/05/09 04:22:13;;;;;;;33.17;21.85;;;14.10;99.90;;;;;;4872420;29;38876;-81
2023/05/09 04:24:40;;;;;;;36.70;22.08;;;14.10;99.90;;;;;;4871394;29;37159;-81
2023/05/09 04:27:06;;;;;;;30.48;20.20;;;14.00;99.90;;;;;;4871138;29;36335;-81
2023/05/09 04:29:32;;;;;;;30.55;20.73;;;14.10;99.90;;;;;;4872440;29;39201;-82
2023/05/09 04:31:58;;;;;;;25.92;19.23;;;14.10;99.90;;;;;;4868301;29;38348;-81
2023/05/09 04:34:28;;;;;;;31.98;22.35;;;14.00;99.90;;;;;;4866813;29;37912;-81
2023/05/09 04:36:54;;;;;;;26.35;18.38;;;14.00;99.90;;;;;;4862762;29;38401;-81
2023/05/09 04:39:20;;;;;;;32.47;21.70;;;14.00;99.90;;;;;;4867982;29;38536;-81
2023/05/09 04:41:48;;;;;;;31.80;20.08;;;14.10;99.90;;;;;;4867310;29;37670;-81
2023/05/09 04:44:15;;;;;;;28.73;18.70;;;14.00;99.90;;;;;;4869478;29;37011;-82
2023/05/09 04:46:42;;;;;;;33.10;18.13;;;14.00;99.90;;;;;;4875745;29;36351;-81
2023/05/09 04:49:08;;;;;;;25.98;18.40;;;14.00;99.90;;;;;;4872037;29;37874;-82
2023/05/09 04:51:34;;;;;;;26.90;18.58;;;14.00;99.90;;;;;;4870851;29;37180;-82
2023/05/09 04:54:00;;;;;;;24.40;17.58;;;14.00;99.90;;;;;;4866459;29;37674;-83
2023/05/09 04:56:26;;;;;;;25.30;17.17;;;14.00;99.90;;;;;;4869872;29;36039;-83
2023/05/09 04:58:53;;;;;;;30.35;17.42;;;14.00;99.90;;;;;;4883108;29;39024;-82
2023/05/09 05:01:21;;;;;;;29.45;18.92;;;14.10;99.90;;;;;;4874213;29;38911;-82
2023/05/09 05:03:47;;;;;;;30.27;16.77;;;14.00;99.90;;;;;;4888817;29;37353;-81
2023/05/09 05:06:49;;;;;;;28.05;17.15;;;14.00;99.90;;;;;;4876199;29;36065;-82
2023/05/09 05:09:15;;;;;;;26.95;17.88;;;14.00;99.90;;;;;;4886999;29;38792;-79
2023/05/09 05:11:41;;;;;;;25.92;17.30;;;14.00;99.90;;;;;;4881802;29;39721;-80
2023/05/09 05:14:07;;;;;;;27.75;18.85;;;13.90;99.90;;;;;;4870742;29;37933;-80
2023/05/09 05:16:33;;;;;;;29.35;18.73;;;13.90;99.90;;;;;;4871546;29;38430;-80
2023/05/09 05:18:59;;;;;;;28.10;19.02;;;13.90;99.90;;;;;;4868939;29;38945;-79
2023/05/09 05:21:26;;;;;;;30.95;19.88;;;13.90;99.90;;;;;;4879037;29;37285;-81
2023/05/09 05:23:52;;;;;;;27.25;19.17;;;13.90;99.90;;;;;;4873078;29;37956;-81
2023/05/09 05:26:18;;;;;;;26.75;19.15;;;13.90;99.90;;;;;;4874000;29;38513;-84
2023/05/09 05:28:44;;;;;;;26.95;18.95;;;13.90;99.90;;;;;;4871282;29;38223;-79
2023/05/09 05:31:11;;;;;;;26.92;19.13;;;13.80;99.90;;;;;;4872781;29;37454;-79
2023/05/09 05:33:37;;;;;;;27.63;20.45;;;13.80;99.90;;;;;;4875842;29;39752;-80
2023/05/09 05:36:03;;;;;;;28.63;18.65;;;13.80;99.90;;;;;;4865359;29;37807;-79
2023/05/09 05:38:29;;;;;;;32.47;21.30;;;13.80;99.90;;;;;;4863015;29;39153;-79
2023/05/09 05:40:56;;;;;;;29.05;18.88;;;13.80;99.90;;;;;;4863379;29;37242;-79
2023/05/09 05:43:22;;;;;;;28.02;19.10;;;13.80;99.90;;;;;;4869810;29;36849;-80
2023/05/09 05:45:48;;;;;;;32.88;18.73;;;13.80;99.90;;;;;;4864224;29;37508;-80
2023/05/09 05:48:14;;;;;;;23.90;16.90;;;13.70;99.90;;;;;;4853232;29;38682;-80
2023/05/09 05:50:43;;;;;;;26.20;17.48;;;13.70;99.90;;;;;;4869000;29;38709;-79
2023/05/09 05:53:28;;;;;;;25.50;16.05;;;13.70;99.90;;;;;;4852024;29;38586;-80
2023/05/09 05:55:54;;;;;;;22.80;15.98;;;13.70;99.90;;;;;;4876345;29;37982;-79
2023/05/09 05:58:20;;;;;;;23.65;15.65;;;13.70;99.90;;;;;;4867111;29;38215;-79
2023/05/09 06:00:46;;;;;;;22.20;15.10;;;13.60;99.90;;;;;;4862538;29;37584;-79
2023/05/09 06:03:13;;;;;;;24.45;17.98;;;13.70;99.90;;;;;;4866353;29;37180;-79
2023/05/09 06:05:43;;;;;;;21.35;16.08;;;13.60;99.90;;;;;;4864728;29;36607;-82
2023/05/09 06:08:09;;;;;;;22.77;16.63;;;13.60;99.90;;;;;;4858380;29;39728;-79
2023/05/09 06:10:35;;;;;;;23.85;16.00;;;13.60;99.90;;;;;;4879236;29;37967;-81
2023/05/09 06:13:01;;;;;;;23.75;16.30;;;13.60;99.90;;;;;;4867591;29;37462;-80
2023/05/09 06:15:27;;;;;;;22.17;15.65;;;13.60;99.90;;;;;;4866662;29;46536;-80
2023/05/09 06:17:54;;;;;;;22.25;16.25;;;13.60;99.90;;;;;;4867923;29;38334;-79
2023/05/09 06:20:20;;;;;;;23.48;15.73;;;13.60;99.90;;;;;;4867735;29;37951;-79
2023/05/09 06:22:55;;;;;;;22.52;15.05;;;13.60;99.90;;;;;;4867049;29;37045;-80
2023/05/09 06:25:25;;;;;;;19.73;14.30;;;13.60;99.90;;;;;;4853606;29;37524;-81
2023/05/09 06:27:51;;;;;;;23.33;15.98;;;13.60;99.90;;;;;;4867472;29;37835;-80
2023/05/09 06:30:17;;;;;;;24.75;15.38;;;13.60;99.90;;;;;;4865364;29;37203;-80
2023/05/09 06:32:43;;;;;;;19.08;14.43;;;13.60;99.90;;;;;;4861714;29;38509;-81
2023/05/09 06:35:09;;;;;;;21.30;14.02;;;13.60;99.90;;;;;;4862764;29;38187;-82
2023/05/09 06:37:35;;;;;;;22.67;14.52;;;13.60;99.90;;;;;;4863111;29;37978;-80
2023/05/09 06:40:02;;;;;;;19.77;13.95;;;13.60;99.90;;;;;;4865308;29;37971;-81
2023/05/09 06:42:28;;;;;;;24.70;14.73;;;13.60;99.90;;;;;;4860277;29;39299;-82
2023/05/09 06:44:54;;;;;;;23.95;15.32;;;13.60;99.90;;;;;;4864976;29;37610;-82
2023/05/09 06:47:21;;;;;;;19.58;14.90;;;13.60;99.90;;;;;;4871610;29;39273;-81
2023/05/09 06:49:47;;;;;;;19.40;14.10;;;13.60;99.90;;;;;;4868179;29;37563;-81
2023/05/09 06:52:14;;;;;;;23.73;14.60;;;13.50;99.90;;;;;;4860867;29;36859;-81
2023/05/09 06:54:40;;;;;;;17.95;14.82;;;13.60;99.90;;;;;;4871619;29;38389;-81
2023/05/09 06:57:07;;;;;;;25.67;14.73;;;13.60;99.90;;;;;;4863757;29;38148;-81
2023/05/09 06:59:33;;;;;;;21.15;14.48;;;13.60;99.90;;;;;;4861155;29;37264;-80
2023/05/09 07:01:59;;;;;;;21.95;14.85;;;13.50;99.90;;;;;;4867147;29;36901;-80
2023/05/09 07:04:25;;;;;;;18.70;14.95;;;13.60;99.90;;;;;;4862144;29;36404;-80
2023/05/09 07:06:51;;;;;;;20.38;14.10;;;13.60;99.90;;;;;;4862527;29;37609;-80
2023/05/09 07:09:19;;;;;;;18.50;14.68;;;13.60;99.90;;;;;;4865954;29;36851;-80
2023/05/09 07:11:45;;;;;;;17.25;13.63;;;13.70;99.90;;;;;;4865888;29;37334;-79
2023/05/09 07:14:12;;;;;;;19.80;13.75;;;13.70;99.90;;;;;;4862474;29;39092;-78
2023/05/09 07:16:38;;;;;;;21.00;14.93;;;13.70;99.90;;;;;;4867698;29;37749;-79
2023/05/09 07:19:04;;;;;;;18.85;15.00;;;13.80;99.90;;;;;;4866805;29;36626;-79
2023/05/09 07:21:33;;;;;;;22.90;15.77;;;13.80;99.90;;;;;;4869847;29;37372;-79
2023/05/09 07:23:59;;;;;;;21.83;15.02;;;13.90;99.90;;;;;;4864590;29;38450;-79
2023/05/09 07:26:25;;;;;;;21.83;15.02;;;13.90;99.90;;;;;;4863499;29;38595;-80
2023/05/09 07:28:51;;;;;;;20.77;16.02;;;14.00;99.90;;;;;;4861595;29;38197;-78
2023/05/09 07:31:18;;;;;;;22.75;16.55;;;13.90;99.90;;;;;;4859823;29;38439;-81
2023/05/09 07:33:44;;;;;;;25.00;17.40;;;14.00;99.90;;;;;;4866797;29;37726;-79
2023/05/09 07:36:15;;;;;;;26.42;18.52;;;14.00;99.90;;;;;;4870590;29;39154;-79
2023/05/09 07:38:41;;;;;;;22.98;17.63;;;14.00;99.90;;;;;;4873415;29;38280;-79
2023/05/09 07:41:08;;;;;;;23.25;17.95;;;14.00;99.90;;;;;;4866478;29;37151;-80
2023/05/09 07:43:34;;;;;;;24.20;17.63;;;14.00;99.90;;;;;;4862394;29;37909;-80
2023/05/09 07:46:00;;;;;;;24.10;18.85;;;14.00;99.90;;;;;;4865043;29;39214;-79
2023/05/09 07:48:26;;;;;;;22.80;16.27;;;14.00;99.90;;;;;;4882468;29;47267;-78
2023/05/09 07:50:52;;;;;;;26.42;17.73;;;14.00;99.90;;;;;;4873911;29;38138;-79
2023/05/09 07:53:19;;;;;;;21.83;15.55;;;13.90;99.90;;;;;;4864929;29;36513;-82
2023/05/09 07:55:47;;;;;;;20.95;15.30;;;13.90;99.90;;;;;;4864156;29;37767;-80
2023/05/09 07:58:13;;;;;;;24.85;15.30;;;13.90;99.90;;;;;;4861585;29;37159;-79
2023/05/09 08:00:39;;;;;;;20.70;14.38;;;13.90;99.90;;;;;;4859927;29;37924;-80
2023/05/09 08:03:06;;;;;;;20.75;15.18;;;13.90;99.90;;;;;;4862279;29;36462;-79
2023/05/09 08:05:32;;;;;;;19.30;15.88;;;14.00;99.90;;;;;;4858104;29;39470;-78
2023/05/09 08:07:58;;;;;;;22.13;15.25;;;14.00;99.90;;;;;;4863093;29;37701;-79
2023/05/09 08:10:25;;;;;;;25.17;17.83;;;14.00;99.90;;;;;;4867646;29;37668;-78
2023/05/09 08:12:51;;;;;;;22.80;16.80;;;14.00;99.90;;;;;;4864893;29;36656;-78
2023/05/09 08:15:18;;;;;;;25.00;16.60;;;14.10;99.90;;;;;;4867547;29;39135;-78
2023/05/09 08:17:44;;;;;;;19.50;15.55;;;14.20;99.90;;;;;;4868951;29;37203;-77
2023/05/09 08:20:11;;;;;;;23.48;18.20;;;14.20;99.90;;;;;;4861772;29;40074;-77
2023/05/09 08:22:39;;;;;;;19.58;15.75;;;14.20;99.90;;;;;;4864776;29;37357;-77
2023/05/09 08:25:06;;;;;;;23.88;16.58;;;14.20;99.90;;;;;;4861922;29;38551;-78
2023/05/09 08:27:32;;;;;;;22.33;17.25;;;14.10;99.90;;;;;;4868744;29;37519;-76
2023/05/09 08:29:58;;;;;;;19.10;15.70;;;14.10;99.90;;;;;;4872456;29;38533;-77
2023/05/09 08:32:24;;;;;;;23.25;17.27;;;14.00;99.90;;;;;;4863691;29;36887;-77
2023/05/09 08:34:51;;;;;;;19.85;16.38;;;14.10;99.90;;;;;;4869188;29;39035;-77
2023/05/09 08:37:17;;;;;;;24.80;17.92;;;14.10;99.90;;;;;;4876120;29;37630;-76
2023/05/09 08:39:43;;;;;;;22.70;16.42;;;14.20;99.90;;;;;;4868232;29;37472;-76
2023/05/09 08:42:09;;;;;;;23.35;17.50;;;14.20;99.90;;;;;;4870588;29;38884;-77
2023/05/09 08:44:36;;;;;;;20.10;16.63;;;14.20;99.90;;;;;;4871895;29;38052;-78
2023/05/09 08:47:03;;;;;;;20.20;16.10;;;14.30;99.90;;;;;;4867320;29;37922;-80
2023/05/09 08:49:29;;;;;;;21.73;17.25;;;14.30;99.90;;;;;;4867992;29;38715;-79
2023/05/09 08:51:56;;;;;;;18.25;16.30;;;14.20;99.90;;;;;;4861760;29;36570;-78
2023/05/09 08:54:23;;;;;;;22.02;16.92;;;14.30;99.90;;;;;;4869608;29;38683;-77
2023/05/09 08:56:50;;;;;;;23.40;18.92;;;14.20;99.90;;;;;;4867307;29;36537;-77
2023/05/09 08:59:17;;;;;;;19.98;17.17;;;14.10;99.90;;;;;;4868249;29;38364;-78
2023/05/09 09:01:44;;;;;;;23.85;17.95;;;14.20;99.90;;;;;;4869455;29;36514;-77
2023/05/09 09:04:13;;;;;;;23.45;19.42;;;14.20;99.90;;;;;;4876055;29;37849;-84
2023/05/09 09:06:40;;;;;;;20.55;18.30;;;14.20;99.90;;;;;;4868427;29;37679;-79
2023/05/09 09:09:10;;;;;;;22.33;19.52;;;14.20;99.90;;;;;;4871619;29;37467;-81
2023/05/09 09:11:39;;;;;;;22.77;19.77;;;14.20;99.90;;;;;;4865204;29;36720;-79
2023/05/09 09:14:12;;;;;;;23.85;20.50;;;14.20;99.90;;;;;;4862814;29;38382;-81
2023/05/09 09:16:42;;;;;;;26.83;21.15;;;14.20;99.90;;;;;;4877146;29;37216;-83
2023/05/09 09:19:16;;;;;;;23.65;21.05;;;14.20;99.90;;;;;;4857731;29;36055;-79
2023/05/09 09:21:46;;;;;;;26.85;21.40;;;14.30;99.90;;;;;;4847955;29;36265;-81
2023/05/09 09:24:13;;;;;;;24.50;21.00;;;14.20;99.90;;;;;;4861429;29;38646;-79
2023/05/09 09:26:47;;;;;;;24.95;22.38;;;14.20;99.90;;;;;;4868666;29;38011;-82
2023/05/09 09:29:14;;;;;;;25.73;21.00;;;14.30;99.90;;;;;;4861740;29;39951;-78
2023/05/09 09:31:44;;;;;;;24.00;21.00;;;14.20;99.90;;;;;;4861110;29;36526;-80
2023/05/09 09:34:21;;;;;;;25.58;22.25;;;14.30;99.90;;;;;;4862921;29;38022;-79
2023/05/09 09:36:47;;;;;;;25.52;21.88;;;14.30;99.90;;;;;;4866499;29;38381;-82
2023/05/09 09:39:15;;;;;;;26.05;23.38;;;14.40;99.90;;;;;;4862442;29;38632;-83
2023/05/09 09:41:43;;;;;;;25.77;21.80;;;14.40;99.90;;;;;;4877544;29;34762;-78
2023/05/09 09:44:11;;;;;;;25.05;22.05;;;14.30;99.90;;;;;;4863045;29;37379;-82
2023/05/09 09:46:44;;;;;;;24.55;21.65;;;14.30;99.90;;;;;;4864042;29;39605;-81
2023/05/09 09:49:12;;;;;;;24.83;21.88;;;14.30;99.90;;;;;;4864804;29;37445;-80
2023/05/09 09:51:39;;;;;;;24.42;21.83;;;14.40;99.90;;;;;;4864340;29;38244;-81
2023/05/09 09:54:07;;;;;;;24.23;20.50;;;14.40;99.90;;;;;;4867768;29;37346;-80
2023/05/09 09:56:48;;;;;;;25.05;22.52;;;14.40;99.90;;;;;;4860478;29;37353;-83
2023/05/09 09:59:16;;;;;;;28.08;23.92;;;14.40;99.90;;;;;;4864246;29;39095;-84
2023/05/09 10:02:08;;;;;;;24.98;21.60;;;14.40;99.90;;;;;;4866333;29;36346;-79
2023/05/09 10:04:36;;;;;;;24.15;20.98;;;14.40;99.90;;;;;;4862066;29;47167;-82
2023/05/09 10:07:09;;;;;;;22.25;19.98;;;14.40;99.90;;;;;;4864693;29;39302;-83
2023/05/09 10:09:39;;;;;;;23.77;21.23;;;14.40;99.90;;;;;;4864511;29;38129;-85
2023/05/09 10:12:07;;;;;;;22.35;19.95;;;14.40;99.90;;;;;;4855906;29;36758;-83
2023/05/09 10:14:35;;;;;;;20.73;18.40;;;14.40;99.90;;;;;;4867925;29;39831;-83
2023/05/09 10:17:03;;;;;;;24.27;19.30;;;14.40;99.90;;;;;;4863029;29;38519;-81
2023/05/09 10:19:30;;;;;;;21.67;19.48;;;14.40;99.90;;;;;;4862907;29;47262;-86
2023/05/09 10:22:01;;;;;;;20.75;18.55;;;14.40;99.90;;;;;;4869197;29;36560;-86
2023/05/09 10:24:45;;;;;;;26.50;19.15;;;14.40;99.90;;;;;;4869976;29;47611;-86
2023/05/09 10:27:13;;;;;;;22.77;18.83;;;14.40;99.90;;;;;;4868251;29;38223;-85
2023/05/09 10:29:45;;;;;;;21.85;18.27;;;14.40;99.90;;;;;;4871301;29;38731;-88
2023/05/09 10:32:39;;;;;;;22.65;18.80;;;14.30;99.90;;;;;;4877205;29;36303;-90
2023/05/09 10:35:09;;;;;;;20.90;18.67;;;14.30;99.90;;;;;;4881493;29;37837;-87
2023/05/09 10:37:36;;;;;;;20.55;18.60;;;14.30;99.90;;;;;;4869531;29;38311;-87
2023/05/09 10:40:03;;;;;;;22.08;19.77;;;14.30;99.90;;;;;;4876341;29;37790;-90
2023/05/09 10:42:32;;;;;;;21.63;19.45;;;14.30;99.90;;;;;;4868368;29;37402;-85
2023/05/09 10:44:58;;;;;;;19.95;18.05;;;14.30;99.90;;;;;;4867807;29;38581;-87
2023/05/09 10:47:26;;;;;;;20.40;18.30;;;14.30;99.90;;;;;;4870034;29;36831;-85
2023/05/09 10:49:53;;;;;;;19.15;17.17;;;14.30;99.90;;;;;;4869305;29;37510;-85
2023/05/09 10:52:22;;;;;;;16.83;14.98;;;14.30;99.90;;;;;;4869860;29;36550;-83
2023/05/09 10:55:00;;;;;;;17.17;14.52;;;14.20;99.90;;;;;;4870342;29;38638;-86
2023/05/09 10:57:30;;;;;;;16.52;14.82;;;14.20;99.90;;;;;;4873590;29;38432;-84
2023/05/09 10:59:59;;;;;;;18.20;14.05;;;14.20;99.90;;;;;;4865772;29;37250;-83
2023/05/09 11:02:33;;;;;;;17.63;15.15;;;14.20;99.90;;;;;;4859661;29;37571;-83
2023/05/09 11:05:15;;;;;;;17.70;15.80;;;14.20;99.90;;;;;;4865618;29;38057;-82
2023/05/09 11:07:42;;;;;;;18.80;14.10;;;14.30;99.90;;;;;;4860616;29;48521;-85
2023/05/09 11:10:15;;;;;;;16.23;14.10;;;14.30;99.90;;;;;;4864136;29;37539;-82
2023/05/09 11:12:58;;;;;;;18.85;14.25;;;14.20;99.90;;;;;;4855400;29;36448;-88
2023/05/09 11:15:26;;;;;;;11.48;10.27;;;14.20;99.90;;;;;;4864855;29;37887;-84
2023/05/09 11:18:08;;;;;;;16.27;11.00;;;14.20;99.90;;;;;;4879590;29;36978;-85
2023/05/09 11:20:41;;;;;;;13.73;10.20;;;14.10;99.90;;;;;;4863361;29;47745;-84
2023/05/09 11:23:09;;;;;;;10.63;9.30;;;14.10;99.90;;;;;;4859198;29;35180;-86
2023/05/09 11:25:37;;;;;;;11.63;9.15;;;14.20;99.90;;;;;;4858819;29;38420;-84
2023/05/09 11:28:03;;;;;;;10.38;9.27;;;14.10;99.90;;;;;;4856747;29;38304;-84
2023/05/09 11:30:41;;;;;;;9.48;8.50;;;14.20;99.90;;;;;;4863282;29;37426;-84
2023/05/09 11:33:26;;;;;;;11.95;8.00;;;14.20;99.90;;;;;;4868472;29;36440;-79
2023/05/09 11:36:32;;;;;;;8.70;7.70;;;14.10;99.90;;;;;;4863517;29;38081;-85
2023/05/09 11:39:09;;;;;;;10.10;8.05;;;14.20;99.90;;;;;;4868604;29;47441;-83
2023/05/09 11:41:44;;;;;;;11.43;8.60;;;14.20;99.90;;;;;;4870361;29;47775;-86
2023/05/09 11:44:18;;;;;;;8.77;6.95;;;14.30;99.90;;;;;;4865570;29;36095;-84
2023/05/09 11:46:49;;;;;;;9.07;7.25;;;14.20;99.90;;;;;;4864671;29;38345;-83
2023/05/09 11:49:16;;;;;;;7.65;6.10;;;14.20;99.90;;;;;;4865316;29;39406;-83
2023/05/09 11:51:42;;;;;;;9.50;6.88;;;14.20;99.90;;;;;;4866766;29;38513;-85
2023/05/09 11:54:10;;;;;;;8.02;6.50;;;14.30;99.90;;;;;;4869320;29;37176;-86
2023/05/09 11:56:39;;;;;;;8.18;7.20;;;14.30;99.90;;;;;;4871057;29;38920;-84
2023/05/09 11:59:07;;;;;;;8.60;7.30;;;14.30;99.90;;;;;;4859076;29;38789;-83
2023/05/09 12:01:35;;;;;;;10.80;7.75;;;14.30;99.90;;;;;;4866004;29;40535;-82
2023/05/09 12:04:02;;;;;;;8.80;6.65;;;14.30;99.90;;;;;;4860253;29;35171;-84
2023/05/09 12:06:29;;;;;;;10.85;7.25;;;14.30;99.90;;;;;;4855713;29;47393;-84
2023/05/09 12:08:56;;;;;;;6.95;6.25;;;14.30;99.90;;;;;;4861632;29;38720;-82
2023/05/09 12:11:23;;;;;;;9.13;6.65;;;14.40;99.90;;;;;;4861401;29;38832;-83
2023/05/09 12:13:51;;;;;;;7.80;6.90;;;14.40;99.90;;;;;;4853445;29;36249;-82
2023/05/09 12:16:18;;;;;;;11.77;7.75;;;14.40;99.90;;;;;;4855083;29;38831;-79
2023/05/09 12:18:50;;;;;;;7.47;6.78;;;14.50;99.90;;;;;;4859850;29;36612;-80
2023/05/09 12:21:17;;;;;;;6.88;5.72;;;14.50;99.90;;;;;;4859489;29;39812;-80
2023/05/09 12:23:45;;;;;;;7.80;7.00;;;14.50;99.90;;;;;;4857027;29;37904;-82
2023/05/09 12:26:11;;;;;;;8.43;6.72;;;14.50;99.90;;;;;;4858413;29;41537;-80
2023/05/09 12:28:38;;;;;;;7.25;6.55;;;14.50;99.90;;;;;;4864884;29;39946;-81
2023/05/09 12:31:05;;;;;;;7.07;6.38;;;14.50;99.90;;;;;;4864635;29;38184;-79
2023/05/09 12:33:31;;;;;;;6.82;6.13;;;14.50;99.90;;;;;;4870499;29;36362;-81
2023/05/09 12:36:03;;;;;;;7.35;6.43;;;14.60;99.90;;;;;;4862240;29;38460;-80
2023/05/09 12:38:29;;;;;;;10.55;6.85;;;14.70;99.90;;;;;;4862190;29;48603;-81
2023/05/09 12:41:06;;;;;;;8.35;6.20;;;14.60;99.90;;;;;;4862879;29;37182;-80